createdAt,value
2023-03-22T00:00:17.642Z,7.43
2023-03-22T00:02:44.787Z,7.46
2023-03-22T00:05:11.863Z,7.46
2023-03-22T00:07:41.107Z,7.51
2023-03-22T00:10:08.532Z,7.36
2023-03-22T00:12:35.744Z,7.41
2023-03-22T00:15:02.888Z,7.38
2023-03-22T00:17:31.139Z,7.38
2023-03-22T00:19:58.472Z,7.41
2023-03-22T00:22:26.215Z,7.35
2023-03-22T00:24:53.263Z,7.32
2023-03-22T00:27:20.564Z,7.38
2023-03-22T00:29:47.683Z,7.39
2023-03-22T00:32:16.293Z,7.44
2023-03-22T00:34:43.523Z,7.47
2023-03-22T00:37:10.652Z,7.53
2023-03-22T00:39:37.901Z,7.61
2023-03-22T00:42:06.836Z,7.59
2023-03-22T00:44:33.839Z,7.63
2023-03-22T00:47:01.197Z,7.67
2023-03-22T00:49:29.321Z,7.71
2023-03-22T00:51:56.628Z,7.64
2023-03-22T00:54:23.570Z,7.63
2023-03-22T00:56:50.798Z,7.63
2023-03-22T00:59:18.095Z,7.54
2023-03-22T01:01:45.188Z,7.50
2023-03-22T01:04:18.088Z,7.54
2023-03-22T01:06:47.295Z,7.53
2023-03-22T01:09:15.221Z,7.52
2023-03-22T01:11:43.616Z,7.53
2023-03-22T01:14:13.994Z,7.56
2023-03-22T01:16:41.293Z,7.57
2023-03-22T01:19:08.817Z,7.47
2023-03-22T01:21:35.980Z,7.47
2023-03-22T01:24:03.476Z,7.44
2023-03-22T01:26:30.674Z,7.50
2023-03-22T01:28:57.792Z,7.48
2023-03-22T01:31:25.045Z,7.40
2023-03-22T01:33:52.161Z,7.44
2023-03-22T01:36:21.168Z,7.44
2023-03-22T01:38:48.237Z,7.45
2023-03-22T01:41:17.270Z,7.45
2023-03-22T01:43:45.095Z,7.47
2023-03-22T01:46:12.394Z,7.46
2023-03-22T01:48:46.190Z,7.45
2023-03-22T01:51:14.635Z,7.41
2023-03-22T01:53:58.709Z,7.37
2023-03-22T01:56:28.810Z,7.41
2023-03-22T01:58:56.542Z,7.46
2023-03-22T02:01:33.847Z,7.46
2023-03-22T02:04:15.274Z,7.46
2023-03-22T02:06:43.097Z,7.38
2023-03-22T02:09:22.160Z,7.38
2023-03-22T02:12:08.683Z,7.37
2023-03-22T02:14:56.534Z,7.41
2023-03-22T02:18:17.268Z,7.44
2023-03-22T02:21:10.554Z,7.44
2023-03-22T02:23:46.626Z,7.47
2023-03-22T02:26:50.781Z,7.45
2023-03-22T02:29:38.223Z,7.45
2023-03-22T02:32:41.325Z,7.43
2023-03-22T02:35:19.037Z,7.43
2023-03-22T02:37:55.454Z,7.42
2023-03-22T02:40:34.769Z,7.44
2023-03-22T02:43:18.492Z,7.43
2023-03-22T02:45:54.625Z,7.44
2023-03-22T02:48:27.674Z,7.45
2023-03-22T02:51:10.702Z,7.43
2023-03-22T02:54:03.870Z,7.49
2023-03-22T02:56:39.457Z,7.51
2023-03-22T02:59:12.077Z,7.46
2023-03-22T03:02:02.028Z,7.41
2023-03-22T03:04:33.391Z,7.33
2023-03-22T03:07:06.132Z,7.38
2023-03-22T03:09:33.774Z,7.32
2023-03-22T03:12:00.839Z,7.28
2023-03-22T03:14:31.288Z,7.31
2023-03-22T03:17:17.235Z,7.36
2023-03-22T03:20:00.570Z,7.36
2023-03-22T03:22:59.008Z,7.33
2023-03-22T03:25:29.128Z,7.35
2023-03-22T03:28:11.578Z,7.34
2023-03-22T03:30:57.257Z,7.31
2023-03-22T03:33:28.283Z,7.28
2023-03-22T03:36:11.817Z,7.29
2023-03-22T03:38:45.500Z,7.30
2023-03-22T03:41:20.341Z,7.27
2023-03-22T03:43:51.690Z,7.23
2023-03-22T03:46:19.156Z,7.29
2023-03-22T03:48:49.725Z,7.31
2023-03-22T03:51:17.124Z,7.29
2023-03-22T03:53:44.472Z,7.32
2023-03-22T03:56:11.884Z,7.32
2023-03-22T03:58:43.942Z,7.38
2023-03-22T04:01:11.689Z,7.42
2023-03-22T04:03:50.844Z,7.42
2023-03-22T04:06:36.226Z,7.43
2023-03-22T04:09:09.820Z,7.43
2023-03-22T04:11:41.788Z,7.39
2023-03-22T04:14:09.087Z,7.44
2023-03-22T04:16:36.413Z,7.42
2023-03-22T04:19:04.320Z,7.41
2023-03-22T04:21:31.364Z,7.39
2023-03-22T04:24:01.010Z,7.44
2023-03-22T04:26:34.099Z,7.46
2023-03-22T04:29:14.922Z,7.46
2023-03-22T04:31:46.901Z,7.48
2023-03-22T04:34:39.484Z,7.47
2023-03-22T04:37:14.011Z,7.45
2023-03-22T04:39:48.542Z,7.41
2023-03-22T04:42:36.202Z,7.41
2023-03-22T04:45:12.540Z,7.38
2023-03-22T04:47:41.302Z,7.45
2023-03-22T04:50:09.363Z,7.52
2023-03-22T04:52:44.935Z,7.50
2023-03-22T04:55:12.128Z,7.57
2023-03-22T04:57:39.383Z,7.58
2023-03-22T05:00:08.707Z,7.58
2023-03-22T05:02:41.415Z,7.56
2023-03-22T05:05:16.282Z,7.54
2023-03-22T05:07:44.256Z,7.49
2023-03-22T05:10:11.446Z,7.41
2023-03-22T05:12:39.721Z,7.42
2023-03-22T05:15:28.545Z,7.37
2023-03-22T05:17:55.924Z,7.36
2023-03-22T05:20:25.058Z,7.39
2023-03-22T05:23:14.817Z,7.44
2023-03-22T05:25:47.680Z,7.43
2023-03-22T05:28:19.805Z,7.42
2023-03-22T05:31:05.969Z,7.35
2023-03-22T05:33:42.914Z,7.39
2023-03-22T05:36:17.030Z,7.43
2023-03-22T05:39:15.978Z,7.47
2023-03-22T05:41:44.226Z,7.51
2023-03-22T05:44:11.376Z,7.56
2023-03-22T05:46:44.263Z,7.53
2023-03-22T05:49:23.370Z,7.55
2023-03-22T05:51:50.718Z,7.57
2023-03-22T05:54:19.131Z,7.58
2023-03-22T05:56:50.202Z,7.61
2023-03-22T05:59:17.281Z,7.59
2023-03-22T06:01:44.905Z,7.55
2023-03-22T06:04:23.714Z,7.54
2023-03-22T06:06:57.482Z,7.55
2023-03-22T06:09:40.539Z,7.51
2023-03-22T06:12:12.380Z,7.48
2023-03-22T06:14:40.479Z,7.45
2023-03-22T06:17:15.425Z,7.45
2023-03-22T06:19:43.929Z,7.46
2023-03-22T06:22:13.521Z,7.51
2023-03-22T06:24:43.369Z,7.59
2023-03-22T06:27:14.623Z,7.67
2023-03-22T06:29:41.832Z,7.67
2023-03-22T06:32:09.052Z,7.70
2023-03-22T06:34:36.476Z,7.76
2023-03-22T06:37:03.639Z,7.80
2023-03-22T06:39:34.505Z,7.91
2023-03-22T06:42:01.920Z,8.11
2023-03-22T06:44:29.340Z,8.74
2023-03-22T06:47:16.576Z,10.15
2023-03-22T06:49:54.798Z,11.30
2023-03-22T06:52:26.185Z,11.83
2023-03-22T06:54:53.379Z,11.93
2023-03-22T06:57:20.641Z,12.02
2023-03-22T06:59:47.782Z,12.82
2023-03-22T07:02:14.796Z,14.91
2023-03-22T07:04:54.608Z,15.21
2023-03-22T07:07:21.713Z,16.17
2023-03-22T07:09:50.062Z,18.47
2023-03-22T07:12:18.907Z,20.54
2023-03-22T07:14:47.434Z,21.87
2023-03-22T07:17:24.990Z,23.05
2023-03-22T07:19:52.414Z,24.06
2023-03-22T07:22:24.973Z,24.85
2023-03-22T07:24:57.249Z,25.47
2023-03-22T07:27:27.705Z,25.94
2023-03-22T07:29:55.583Z,26.57
2023-03-22T07:32:23.089Z,27.50
2023-03-22T07:35:10.521Z,28.38
2023-03-22T07:37:39.980Z,29.02
2023-03-22T07:40:16.411Z,29.95
2023-03-22T07:42:44.043Z,30.52
2023-03-22T07:45:23.561Z,30.39
2023-03-22T07:48:13.989Z,30.15
2023-03-22T07:51:07.297Z,27.97
2023-03-22T07:53:34.609Z,26.02
2023-03-22T07:56:04.545Z,24.24
2023-03-22T07:58:31.847Z,22.81
2023-03-22T08:01:05.089Z,21.77
2023-03-22T08:03:54.421Z,20.49
2023-03-22T08:06:43.031Z,19.96
2023-03-22T08:09:11.699Z,19.31
2023-03-22T08:11:38.791Z,18.75
2023-03-22T08:14:06.320Z,18.07
2023-03-22T08:16:38.532Z,17.57
2023-03-22T08:19:06.827Z,17.26
2023-03-22T08:21:37.420Z,16.96
2023-03-22T08:24:07.550Z,16.61
2023-03-22T08:26:57.739Z,16.16
2023-03-22T08:29:39.131Z,15.84
2023-03-22T08:32:07.900Z,15.75
2023-03-22T08:34:40.203Z,15.38
2023-03-22T08:37:08.800Z,15.12
2023-03-22T08:39:36.801Z,14.91
2023-03-22T08:42:19.014Z,14.93
2023-03-22T08:44:47.141Z,14.80
2023-03-22T08:47:14.531Z,14.68
2023-03-22T08:49:43.377Z,14.66
2023-03-22T08:52:27.157Z,14.47
2023-03-22T08:55:02.093Z,14.20
2023-03-22T08:57:50.583Z,13.92
2023-03-22T09:00:36.483Z,13.63
2023-03-22T09:03:42.526Z,13.59
2023-03-22T09:06:11.379Z,13.42
2023-03-22T09:08:42.416Z,13.26
2023-03-22T09:11:13.828Z,13.05
2023-03-22T09:13:43.038Z,12.89
2023-03-22T09:16:10.248Z,12.86
2023-03-22T09:18:38.842Z,12.77
2023-03-22T09:21:12.346Z,12.70
2023-03-22T09:24:08.810Z,13.10
2023-03-22T09:26:50.577Z,15.64
2023-03-22T09:29:19.616Z,17.75
2023-03-22T09:31:49.103Z,18.33
2023-03-22T09:34:20.283Z,18.88
2023-03-22T09:36:47.676Z,19.24
2023-03-22T09:39:18.454Z,19.55
2023-03-22T09:41:55.181Z,19.40
2023-03-22T09:44:39.568Z,18.60
2023-03-22T09:47:19.510Z,17.68
2023-03-22T09:49:53.711Z,17.59
2023-03-22T09:52:21.796Z,16.98
2023-03-22T09:54:51.517Z,16.43
2023-03-22T09:57:33.381Z,15.97
2023-03-22T10:00:16.692Z,15.32
2023-03-22T10:02:46.633Z,14.97
2023-03-22T10:05:34.688Z,14.58
2023-03-22T10:08:05.009Z,14.19
2023-03-22T10:10:32.363Z,13.96
2023-03-22T10:13:23.508Z,13.73
2023-03-22T10:15:59.260Z,13.49
2023-03-22T10:18:39.598Z,13.15
2023-03-22T10:21:14.579Z,12.93
2023-03-22T10:24:20.465Z,12.79
2023-03-22T10:26:49.230Z,12.81
2023-03-22T10:29:39.811Z,12.75
2023-03-22T10:32:15.272Z,12.74
2023-03-22T10:34:43.696Z,12.75
2023-03-22T10:37:17.544Z,12.74
2023-03-22T10:39:50.033Z,12.72
2023-03-22T10:42:21.729Z,12.60
2023-03-22T10:44:54.714Z,12.68
2023-03-22T10:47:33.641Z,12.84
2023-03-22T10:50:05.092Z,12.84
2023-03-22T10:52:44.805Z,12.83
2023-03-22T10:55:13.817Z,12.91
2023-03-22T10:57:43.409Z,12.90
2023-03-22T11:00:15.356Z,12.89
2023-03-22T11:02:53.699Z,12.79
2023-03-22T11:05:27.430Z,12.60
2023-03-22T11:07:55.088Z,12.51
2023-03-22T11:10:23.646Z,12.40
2023-03-22T11:12:54.093Z,12.16
2023-03-22T11:15:30.705Z,12.00
2023-03-22T11:18:16.872Z,11.86
2023-03-22T11:20:58.213Z,11.77
2023-03-22T11:23:26.174Z,11.68
2023-03-22T11:25:56.700Z,11.52
2023-03-22T11:28:36.305Z,11.41
2023-03-22T11:31:11.246Z,11.40
2023-03-22T11:33:54.801Z,11.35
2023-03-22T11:36:22.387Z,11.21
2023-03-22T11:38:57.579Z,11.16
2023-03-22T11:41:31.012Z,11.05
2023-03-22T11:44:12.341Z,10.93
2023-03-22T11:46:40.389Z,10.90
2023-03-22T11:49:14.800Z,10.71
2023-03-22T11:51:43.968Z,10.68
2023-03-22T11:54:16.839Z,10.67
2023-03-22T11:56:47.681Z,10.76
2023-03-22T11:59:37.174Z,10.81
2023-03-22T12:02:34.712Z,10.60
2023-03-22T12:05:09.424Z,10.53
2023-03-22T12:07:37.803Z,10.54
2023-03-22T12:10:23.308Z,10.66
2023-03-22T12:12:56.103Z,10.79
2023-03-22T12:15:35.629Z,10.90
2023-03-22T12:18:08.791Z,11.01
2023-03-22T12:20:35.795Z,11.06
2023-03-22T12:23:14.348Z,11.04
2023-03-22T12:26:03.861Z,10.91
2023-03-22T12:28:58.827Z,10.91
2023-03-22T12:32:01.211Z,10.90
2023-03-22T12:34:43.732Z,10.98
2023-03-22T12:37:17.848Z,11.01
2023-03-22T12:40:07.476Z,10.96
2023-03-22T12:42:58.995Z,10.77
2023-03-22T12:45:32.004Z,10.64
2023-03-22T12:48:10.638Z,10.54
2023-03-22T12:50:48.584Z,10.48
2023-03-22T12:53:18.888Z,10.38
2023-03-22T12:55:47.582Z,10.08
2023-03-22T12:58:22.307Z,9.96
2023-03-22T13:00:59.390Z,10.00
2023-03-22T13:03:36.969Z,10.05
2023-03-22T13:06:42.069Z,10.05
2023-03-22T13:09:30.090Z,10.16
2023-03-22T13:12:16.000Z,10.37
2023-03-22T13:14:49.606Z,10.44
2023-03-22T13:17:22.450Z,10.33
2023-03-22T13:19:55.579Z,10.32
2023-03-22T13:22:38.070Z,10.29
2023-03-22T13:25:14.709Z,10.32
2023-03-22T13:28:00.004Z,10.37
2023-03-22T13:30:50.260Z,10.36
2023-03-22T13:33:20.202Z,10.38
2023-03-22T13:35:57.494Z,10.21
2023-03-22T13:38:35.240Z,10.27
2023-03-22T13:41:14.213Z,10.33
2023-03-22T13:43:54.342Z,10.40
2023-03-22T13:46:21.470Z,10.45
2023-03-22T13:48:52.078Z,10.47
2023-03-22T13:51:26.589Z,10.55
2023-03-22T13:53:53.749Z,10.39
2023-03-22T13:56:43.162Z,10.41
2023-03-22T13:59:23.034Z,10.27
2023-03-22T14:02:08.539Z,10.23
2023-03-22T14:04:46.410Z,10.11
2023-03-22T14:07:40.181Z,9.92
2023-03-22T14:10:16.454Z,9.91
2023-03-22T14:12:46.374Z,9.95
2023-03-22T14:15:21.361Z,9.99
2023-03-22T14:18:15.126Z,9.94
2023-03-22T14:20:42.933Z,9.85
